Time;durP1;ratioP1;P1;durP2;ratioP2;P2;SDS_P1;SDS_P2;PMS_P1;PMS_P2;Temp;Humidity;BMP_temperature;BMP_pressure;BME280_temperature;BME280_humidity;BME280_pressure;Samples;Min_cycle;Max_cycle;Signal;HPM_P1;HPM_P2
2022/07/12 00:01:59;;;;;;;4.30;4.00;;;;;;;;;;5052055;28;20474;-75
2022/07/12 00:04:26;;;;;;;4.97;4.67;;;;;;;;;;5052148;28;20473;-77
2022/07/12 00:06:53;;;;;;;4.47;4.17;;;;;;;;;;5052183;28;20441;-75
2022/07/12 00:09:20;;;;;;;5.00;4.63;;;;;;;;;;5058029;28;20438;-77
2022/07/12 00:11:47;;;;;;;4.77;4.47;;;;;;;;;;5064746;28;20863;-76
2022/07/12 00:14:15;;;;;;;5.23;4.73;;;;;;;;;;5062431;28;20460;-75
2022/07/12 00:16:44;;;;;;;4.77;4.37;;;;;;;;;;5063059;28;20795;-75
2022/07/12 00:19:11;;;;;;;4.57;4.27;;;;;;;;;;5060172;28;20495;-75
2022/07/12 00:21:38;;;;;;;4.10;3.80;;;;;;;;;;5059166;28;20450;-76
2022/07/12 00:24:05;;;;;;;5.43;4.93;;;;;;;;;;5056375;28;20547;-75
2022/07/12 00:26:32;;;;;;;3.80;3.60;;;;;;;;;;5055730;28;20476;-75
2022/07/12 00:28:59;;;;;;;4.83;4.53;;;;;;;;;;5057251;28;20467;-75
2022/07/12 00:31:26;;;;;;;4.87;4.47;;;;;;;;;;5060230;28;20453;-76
2022/07/12 00:33:54;;;;;;;4.37;4.17;;;;;;;;;;5059095;28;20517;-76
2022/07/12 00:36:21;;;;;;;4.87;4.47;;;;;;;;;;5058702;28;20441;-76
2022/07/12 00:38:48;;;;;;;5.00;4.60;;;;;;;;;;5058483;28;20992;-75
2022/07/12 00:41:15;;;;;;;4.80;4.50;;;;;;;;;;5057299;28;20445;-76
2022/07/12 00:43:43;;;;;;;4.60;4.23;;;;;;;;;;5053033;28;20470;-76
2022/07/12 00:46:10;;;;;;;4.23;3.83;;;;;;;;;;5052264;28;20454;-75
2022/07/12 00:48:37;;;;;;;4.53;4.20;;;;;;;;;;5051884;28;20477;-75
2022/07/12 00:51:05;;;;;;;4.20;3.90;;;;;;;;;;5052032;28;20437;-75
2022/07/12 00:53:32;;;;;;;3.90;3.60;;;;;;;;;;5051421;28;20469;-75
2022/07/12 00:56:00;;;;;;;4.40;4.00;;;;;;;;;;5051321;28;20935;-75
2022/07/12 00:58:28;;;;;;;5.23;4.83;;;;;;;;;;5051830;28;20472;-76
2022/07/12 01:00:56;;;;;;;4.70;4.40;;;;;;;;;;5051830;28;20507;-75
2022/07/12 01:03:23;;;;;;;4.30;4.10;;;;;;;;;;5051297;28;20560;-75
2022/07/12 01:05:51;;;;;;;4.27;3.90;;;;;;;;;;5051741;28;20481;-74
2022/07/12 01:08:20;;;;;;;4.43;4.13;;;;;;;;;;5051614;28;20442;-75
2022/07/12 01:10:49;;;;;;;4.10;3.83;;;;;;;;;;5051272;28;20491;-74
2022/07/12 01:13:16;;;;;;;3.97;3.73;;;;;;;;;;5050899;28;20465;-76
2022/07/12 01:15:43;;;;;;;4.20;3.93;;;;;;;;;;5051238;28;20849;-74
2022/07/12 01:18:10;;;;;;;4.53;4.23;;;;;;;;;;5052186;28;20457;-77
2022/07/12 01:20:38;;;;;;;4.77;4.47;;;;;;;;;;5052614;28;20441;-76
2022/07/12 01:23:06;;;;;;;5.07;4.67;;;;;;;;;;5052201;28;20473;-75
2022/07/12 01:25:33;;;;;;;5.10;4.70;;;;;;;;;;5053322;28;20477;-75
2022/07/12 01:28:00;;;;;;;5.70;5.30;;;;;;;;;;5054763;28;20450;-76
2022/07/12 01:30:27;;;;;;;5.80;5.40;;;;;;;;;;5054189;28;20587;-75
2022/07/12 01:32:54;;;;;;;5.43;5.03;;;;;;;;;;5053011;28;20461;-75
2022/07/12 01:35:22;;;;;;;5.13;4.73;;;;;;;;;;5052808;28;20469;-75
2022/07/12 01:37:50;;;;;;;4.90;4.50;;;;;;;;;;5052466;28;20941;-76
2022/07/12 01:40:20;;;;;;;5.00;4.70;;;;;;;;;;5056902;28;20437;-75
2022/07/12 01:42:47;;;;;;;6.00;5.50;;;;;;;;;;5063135;28;20549;-76
2022/07/12 01:45:14;;;;;;;5.60;5.20;;;;;;;;;;5063930;28;20469;-77
2022/07/12 01:47:41;;;;;;;6.20;5.70;;;;;;;;;;5063426;28;20495;-75
2022/07/12 01:50:09;;;;;;;6.23;5.73;;;;;;;;;;5056644;28;20480;-74
2022/07/12 01:52:36;;;;;;;5.40;5.00;;;;;;;;;;5056087;28;20543;-74
2022/07/12 01:55:04;;;;;;;5.80;5.30;;;;;;;;;;5055059;28;20960;-75
2022/07/12 01:57:34;;;;;;;5.10;4.80;;;;;;;;;;5055112;28;20555;-75
2022/07/12 02:00:02;;;;;;;5.87;5.40;;;;;;;;;;5054982;28;20430;-76
2022/07/12 02:02:31;;;;;;;5.77;5.37;;;;;;;;;;5054042;28;21079;-76
2022/07/12 02:04:58;;;;;;;5.43;5.03;;;;;;;;;;5054677;28;20572;-74
2022/07/12 02:07:25;;;;;;;5.23;4.90;;;;;;;;;;5054883;28;20456;-75
2022/07/12 02:09:52;;;;;;;5.50;5.20;;;;;;;;;;5055062;28;20874;-75
2022/07/12 02:12:19;;;;;;;5.57;5.23;;;;;;;;;;5054986;28;20831;-74
2022/07/12 02:14:48;;;;;;;5.90;5.40;;;;;;;;;;5054303;28;20991;-75
2022/07/12 02:17:15;;;;;;;5.53;5.10;;;;;;;;;;5055484;28;20445;-75
2022/07/12 02:19:42;;;;;;;5.97;5.20;;;;;;;;;;5054399;28;20495;-75
2022/07/12 02:22:09;;;;;;;6.03;5.53;;;;;;;;;;5054288;28;20477;-75
2022/07/12 02:24:36;;;;;;;5.37;4.97;;;;;;;;;;5053968;28;20500;-75
2022/07/12 02:27:03;;;;;;;6.50;6.00;;;;;;;;;;5054061;28;20797;-75
2022/07/12 02:29:30;;;;;;;5.70;5.30;;;;;;;;;;5054443;28;20441;-75
2022/07/12 02:31:58;;;;;;;6.93;6.33;;;;;;;;;;5053757;28;20470;-75
2022/07/12 02:34:25;;;;;;;6.17;5.57;;;;;;;;;;5053729;28;20442;-74
2022/07/12 02:36:52;;;;;;;6.47;5.97;;;;;;;;;;5053761;28;20441;-76
2022/07/12 02:39:19;;;;;;;4.80;4.30;;;;;;;;;;5053487;28;20499;-75
2022/07/12 02:41:46;;;;;;;5.40;5.00;;;;;;;;;;5053286;28;20868;-75
2022/07/12 02:44:13;;;;;;;5.30;4.90;;;;;;;;;;5053155;28;20445;-75
2022/07/12 02:46:40;;;;;;;5.70;5.20;;;;;;;;;;5053498;28;20503;-77
2022/07/12 02:49:09;;;;;;;5.37;4.93;;;;;;;;;;5053691;28;20498;-75
2022/07/12 02:51:36;;;;;;;10.80;5.60;;;;;;;;;;5053238;28;20445;-74
2022/07/12 02:54:03;;;;;;;5.33;4.83;;;;;;;;;;5053258;28;20433;-75
2022/07/12 02:56:30;;;;;;;4.80;4.50;;;;;;;;;;5053687;28;20456;-75
2022/07/12 02:58:57;;;;;;;5.73;5.33;;;;;;;;;;5053990;28;20470;-76
2022/07/12 03:01:24;;;;;;;5.77;5.37;;;;;;;;;;5053794;28;20437;-75
2022/07/12 03:03:51;;;;;;;5.80;5.43;;;;;;;;;;5065081;28;20705;-76
2022/07/12 03:06:19;;;;;;;4.93;4.63;;;;;;;;;;5070386;28;20547;-76
2022/07/12 03:08:46;;;;;;;4.87;4.47;;;;;;;;;;5056120;28;20499;-75
2022/07/12 03:11:13;;;;;;;5.50;5.10;;;;;;;;;;5054975;28;20965;-75
2022/07/12 03:13:40;;;;;;;5.00;4.53;;;;;;;;;;5054091;28;20461;-74
2022/07/12 03:16:08;;;;;;;5.50;5.00;;;;;;;;;;5054350;28;20441;-75
2022/07/12 03:18:35;;;;;;;4.70;4.40;;;;;;;;;;5053547;28;20441;-75
2022/07/12 03:21:02;;;;;;;5.03;4.63;;;;;;;;;;5053246;28;20471;-77
2022/07/12 03:23:30;;;;;;;5.23;4.90;;;;;;;;;;5052478;28;20527;-75
2022/07/12 03:25:57;;;;;;;4.93;4.53;;;;;;;;;;5052987;28;20477;-75
2022/07/12 03:28:25;;;;;;;5.10;4.80;;;;;;;;;;5053295;28;20492;-76
2022/07/12 03:30:52;;;;;;;5.77;5.37;;;;;;;;;;5053511;28;20445;-75
2022/07/12 03:33:19;;;;;;;4.87;4.47;;;;;;;;;;5052886;28;20885;-75
2022/07/12 03:35:46;;;;;;;5.53;5.03;;;;;;;;;;5052753;28;20495;-75
2022/07/12 03:38:13;;;;;;;5.13;4.83;;;;;;;;;;5052675;28;20446;-75
2022/07/12 03:40:42;;;;;;;4.77;4.37;;;;;;;;;;5053060;28;20538;-75
2022/07/12 03:43:09;;;;;;;7.50;4.80;;;;;;;;;;5052634;28;20535;-76
2022/07/12 03:45:36;;;;;;;5.77;5.27;;;;;;;;;;5052695;28;20476;-75
2022/07/12 03:48:03;;;;;;;5.00;4.70;;;;;;;;;;5052880;28;20473;-76
2022/07/12 03:50:30;;;;;;;5.07;4.67;;;;;;;;;;5052800;28;20487;-75
2022/07/12 03:52:57;;;;;;;4.67;4.07;;;;;;;;;;5052305;28;20469;-76
2022/07/12 03:55:24;;;;;;;4.80;4.40;;;;;;;;;;5052582;28;20487;-76
2022/07/12 03:57:52;;;;;;;4.30;4.10;;;;;;;;;;5052989;28;20544;-76
2022/07/12 04:00:19;;;;;;;4.13;3.90;;;;;;;;;;5052496;28;20925;-77
2022/07/12 04:02:46;;;;;;;4.83;4.53;;;;;;;;;;5051735;28;20470;-76
2022/07/12 04:05:13;;;;;;;4.60;4.30;;;;;;;;;;5052635;28;20474;-76
2022/07/12 04:07:41;;;;;;;4.27;3.93;;;;;;;;;;5052695;28;20449;-76
2022/07/12 04:10:09;;;;;;;4.90;4.60;;;;;;;;;;5054028;28;20529;-77
2022/07/12 04:12:36;;;;;;;5.53;5.00;;;;;;;;;;5060549;28;20461;-75
2022/07/12 04:15:06;;;;;;;5.20;4.80;;;;;;;;;;5061212;28;20450;-74
2022/07/12 04:17:33;;;;;;;5.47;4.97;;;;;;;;;;5060509;28;20450;-75
2022/07/12 04:20:00;;;;;;;4.73;4.33;;;;;;;;;;5061329;28;20472;-74
2022/07/12 04:22:27;;;;;;;7.03;4.70;;;;;;;;;;5054845;28;20521;-75
2022/07/12 04:24:54;;;;;;;5.13;4.73;;;;;;;;;;5033283;28;20446;-76
2022/07/12 04:27:21;;;;;;;4.80;4.50;;;;;;;;;;5047861;28;20449;-75
2022/07/12 04:29:48;;;;;;;5.40;4.20;;;;;;;;;;5051464;28;20545;-76
2022/07/12 04:32:16;;;;;;;6.13;4.47;;;;;;;;;;5051904;28;20481;-75
2022/07/12 04:34:43;;;;;;;4.83;4.33;;;;;;;;;;5051245;28;21035;-75
2022/07/12 04:37:10;;;;;;;6.50;6.00;;;;;;;;;;5052055;28;20471;-76
2022/07/12 04:39:37;;;;;;;8.43;6.90;;;;;;;;;;5051966;28;20441;-75
2022/07/12 04:42:04;;;;;;;5.70;5.30;;;;;;;;;;5051511;28;20543;-74
2022/07/12 04:44:32;;;;;;;5.80;5.40;;;;;;;;;;5051315;28;20496;-74
2022/07/12 04:46:59;;;;;;;5.67;5.10;;;;;;;;;;5053472;28;20507;-77
2022/07/12 04:49:27;;;;;;;5.67;5.27;;;;;;;;;;5053856;28;20916;-75
2022/07/12 04:51:54;;;;;;;5.53;5.00;;;;;;;;;;5051914;28;20469;-75
2022/07/12 04:54:21;;;;;;;4.80;4.50;;;;;;;;;;5051195;28;20835;-74
2022/07/12 04:56:48;;;;;;;5.20;4.80;;;;;;;;;;5051459;28;20453;-76
2022/07/12 04:59:15;;;;;;;4.80;4.40;;;;;;;;;;5052065;28;20822;-77
2022/07/12 05:01:42;;;;;;;5.57;5.17;;;;;;;;;;5051677;28;20442;-76
2022/07/12 05:04:09;;;;;;;4.73;4.33;;;;;;;;;;5050657;28;20450;-74
2022/07/12 05:06:38;;;;;;;5.90;4.83;;;;;;;;;;5051044;28;21078;-76
2022/07/12 05:09:05;;;;;;;6.50;5.20;;;;;;;;;;5051019;28;20492;-74
2022/07/12 05:11:33;;;;;;;5.80;5.40;;;;;;;;;;5051187;28;20441;-76
2022/07/12 05:14:00;;;;;;;5.70;5.20;;;;;;;;;;5051127;28;20446;-77
2022/07/12 05:16:27;;;;;;;5.90;5.50;;;;;;;;;;5054863;28;20499;-75
2022/07/12 05:18:54;;;;;;;5.37;4.97;;;;;;;;;;5055326;28;20441;-76
2022/07/12 05:21:21;;;;;;;5.27;4.87;;;;;;;;;;5055329;28;20585;-76
2022/07/12 05:23:49;;;;;;;6.13;5.73;;;;;;;;;;5054943;28;20477;-75
2022/07/12 05:26:17;;;;;;;6.43;4.70;;;;;;;;;;5055008;28;21180;-75
2022/07/12 05:28:44;;;;;;;5.50;5.10;;;;;;;;;;5055083;28;20540;-76
2022/07/12 05:31:11;;;;;;;5.20;4.80;;;;;;;;;;5060512;28;20557;-76
2022/07/12 05:33:38;;;;;;;6.20;5.60;;;;;;;;;;5063178;28;20890;-75
2022/07/12 05:36:05;;;;;;;4.93;4.63;;;;;;;;;;5058789;28;20472;-76
2022/07/12 05:38:32;;;;;;;6.50;6.10;;;;;;;;;;5054481;28;20524;-76
2022/07/12 05:41:01;;;;;;;5.47;5.17;;;;;;;;;;5054816;28;20483;-75
2022/07/12 05:43:28;;;;;;;6.57;6.03;;;;;;;;;;5054764;28;21048;-76
2022/07/12 05:45:55;;;;;;;5.97;5.57;;;;;;;;;;5055046;28;20469;-76
2022/07/12 05:48:22;;;;;;;5.93;5.47;;;;;;;;;;5054971;28;20437;-76
2022/07/12 05:50:49;;;;;;;6.27;4.90;;;;;;;;;;5054746;28;20491;-78
2022/07/12 05:53:21;;;;;;;5.07;4.67;;;;;;;;;;5054365;28;20565;-76
2022/07/12 05:55:49;;;;;;;5.03;4.70;;;;;;;;;;5054757;28;20413;-76
2022/07/12 05:58:17;;;;;;;4.77;4.40;;;;;;;;;;5054507;28;20901;-76
2022/07/12 06:00:44;;;;;;;5.30;4.37;;;;;;;;;;5054546;28;20441;-75
2022/07/12 06:03:11;;;;;;;7.97;5.00;;;;;;;;;;5054197;28;20473;-75
2022/07/12 06:05:38;;;;;;;4.37;4.07;;;;;;;;;;5054721;28;20885;-77
2022/07/12 06:08:06;;;;;;;4.33;4.03;;;;;;;;;;5054451;28;20433;-76
2022/07/12 06:10:33;;;;;;;4.07;3.67;;;;;;;;;;5054003;28;20445;-75
2022/07/12 06:13:00;;;;;;;4.10;3.90;;;;;;;;;;5048231;28;20557;-76
2022/07/12 06:15:29;;;;;;;3.53;3.30;;;;;;;;;;5054077;28;20496;-75
2022/07/12 06:17:57;;;;;;;4.07;3.87;;;;;;;;;;5053739;28;20445;-76
2022/07/12 06:20:24;;;;;;;4.33;4.03;;;;;;;;;;5053919;28;20467;-76
2022/07/12 06:22:51;;;;;;;5.33;3.93;;;;;;;;;;5053505;28;20454;-75
2022/07/12 06:25:18;;;;;;;4.00;3.60;;;;;;;;;;5053370;28;20450;-76
2022/07/12 06:27:47;;;;;;;4.13;3.70;;;;;;;;;;5053890;28;20481;-76
2022/07/12 06:30:15;;;;;;;4.10;3.90;;;;;;;;;;5054012;28;20449;-75
2022/07/12 06:32:44;;;;;;;4.03;3.70;;;;;;;;;;5053878;28;20457;-75
2022/07/12 06:35:11;;;;;;;3.33;3.13;;;;;;;;;;5054581;28;20491;-75
2022/07/12 06:37:38;;;;;;;2.97;2.80;;;;;;;;;;5054805;28;20441;-75
2022/07/12 06:40:06;;;;;;;3.37;3.03;;;;;;;;;;5053793;28;20453;-76
2022/07/12 06:42:33;;;;;;;3.63;3.33;;;;;;;;;;5053294;28;20472;-77
2022/07/12 06:45:00;;;;;;;2.00;1.90;;;;;;;;;;5053697;28;20814;-76
2022/07/12 06:47:27;;;;;;;1.70;1.60;;;;;;;;;;5053693;28;20511;-76
2022/07/12 06:49:55;;;;;;;2.13;1.93;;;;;;;;;;5053642;28;20442;-77
2022/07/12 06:52:22;;;;;;;2.33;2.23;;;;;;;;;;5053325;28;20466;-76
2022/07/12 06:54:50;;;;;;;3.30;2.10;;;;;;;;;;5053264;28;20442;-75
2022/07/12 06:57:17;;;;;;;2.13;2.03;;;;;;;;;;5053207;28;20447;-76
2022/07/12 06:59:44;;;;;;;3.70;1.93;;;;;;;;;;5053485;28;20571;-75
2022/07/12 07:02:11;;;;;;;1.47;1.40;;;;;;;;;;5053328;28;20492;-75
2022/07/12 07:04:38;;;;;;;2.03;1.93;;;;;;;;;;5052960;28;20937;-77
2022/07/12 07:07:07;;;;;;;2.10;2.00;;;;;;;;;;5053083;28;20477;-76
2022/07/12 07:09:34;;;;;;;2.50;1.80;;;;;;;;;;5052907;28;20515;-76
2022/07/12 07:12:01;;;;;;;1.93;1.73;;;;;;;;;;5052980;28;20461;-76
2022/07/12 07:14:29;;;;;;;2.57;2.37;;;;;;;;;;5052990;28;20949;-76
2022/07/12 07:16:56;;;;;;;2.23;1.90;;;;;;;;;;5053771;28;20540;-76
2022/07/12 07:19:24;;;;;;;2.00;1.73;;;;;;;;;;5054353;28;21046;-76
2022/07/12 07:21:51;;;;;;;1.60;1.60;;;;;;;;;;5057769;28;20823;-76
2022/07/12 07:24:19;;;;;;;2.53;1.80;;;;;;;;;;5056093;28;20445;-76
2022/07/12 07:26:46;;;;;;;1.83;1.70;;;;;;;;;;5056976;28;20564;-76
2022/07/12 07:31:58;;;;;;;1.60;1.50;;;;;;;;;;5056498;28;20432;-75
2022/07/12 07:34:26;;;;;;;1.83;1.33;;;;;;;;;;5056168;28;20499;-75
2022/07/12 07:36:53;;;;;;;1.63;1.50;;;;;;;;;;5052424;28;20438;-76
2022/07/12 07:39:22;;;;;;;1.30;1.20;;;;;;;;;;5052046;28;20879;-77
2022/07/12 07:41:49;;;;;;;1.80;1.70;;;;;;;;;;5052426;28;22169;-76
2022/07/12 07:44:16;;;;;;;1.60;1.50;;;;;;;;;;5051978;28;20930;-76
2022/07/12 07:46:43;;;;;;;2.27;1.70;;;;;;;;;;5052748;28;20534;-76
2022/07/12 07:49:10;;;;;;;2.43;1.60;;;;;;;;;;5043676;28;20503;-76
2022/07/12 07:51:37;;;;;;;2.17;1.00;;;;;;;;;;5050634;28;20507;-75
2022/07/12 07:54:04;;;;;;;0.93;0.93;;;;;;;;;;5052181;28;20488;-76
2022/07/12 07:56:32;;;;;;;0.60;0.60;;;;;;;;;;5052576;28;20450;-76
2022/07/12 07:58:59;;;;;;;1.53;0.50;;;;;;;;;;5052293;28;20450;-75
2022/07/12 08:04:07;;;;;;;0.80;0.70;;;;;;;;;;5050634;28;20441;-76
2022/07/12 08:06:34;;;;;;;0.57;0.57;;;;;;;;;;5047827;28;20477;-76
2022/07/12 08:09:01;;;;;;;1.43;0.77;;;;;;;;;;5043908;28;20926;-77
2022/07/12 08:11:28;;;;;;;1.00;0.90;;;;;;;;;;5052176;28;20442;-75
2022/07/12 08:13:56;;;;;;;1.27;1.00;;;;;;;;;;5051828;28;20445;-76
2022/07/12 08:16:23;;;;;;;3.03;0.63;;;;;;;;;;5051971;28;20987;-75
2022/07/12 08:18:50;;;;;;;0.70;0.70;;;;;;;;;;5051838;28;20522;-76
2022/07/12 08:21:17;;;;;;;0.60;0.60;;;;;;;;;;5039650;28;20992;-76
2022/07/12 08:23:44;;;;;;;0.70;0.70;;;;;;;;;;5044818;28;20470;-75
2022/07/12 08:26:12;;;;;;;0.57;0.57;;;;;;;;;;5052288;28;20449;-76
2022/07/12 08:28:39;;;;;;;0.60;0.60;;;;;;;;;;5052136;28;20445;-76
2022/07/12 08:31:07;;;;;;;2.10;0.80;;;;;;;;;;5051762;28;20451;-75
2022/07/12 08:33:34;;;;;;;0.57;0.57;;;;;;;;;;5051370;28;20483;-76
2022/07/12 08:36:01;;;;;;;1.60;1.10;;;;;;;;;;5052191;28;20467;-75
2022/07/12 08:38:30;;;;;;;0.77;0.77;;;;;;;;;;5051896;28;20513;-76
2022/07/12 08:40:58;;;;;;;0.70;0.70;;;;;;;;;;5037839;28;20461;-76
2022/07/12 08:43:25;;;;;;;0.73;0.73;;;;;;;;;;5035330;28;20466;-75
2022/07/12 08:45:52;;;;;;;0.80;0.80;;;;;;;;;;5046660;28;20540;-78
2022/07/12 08:48:20;;;;;;;0.87;0.87;;;;;;;;;;5051695;28;20495;-74
2022/07/12 08:51:01;;;;;;;0.83;0.80;;;;;;;;;;5044498;28;20460;-75
2022/07/12 08:53:28;;;;;;;0.70;0.70;;;;;;;;;;5044998;28;20541;-76
2022/07/12 08:55:55;;;;;;;1.00;0.90;;;;;;;;;;5044402;28;20454;-75
2022/07/12 08:58:22;;;;;;;1.60;0.90;;;;;;;;;;5039086;28;20777;-75
2022/07/12 09:00:49;;;;;;;6.30;1.00;;;;;;;;;;5034576;28;20502;-76
2022/07/12 09:03:17;;;;;;;0.90;0.90;;;;;;;;;;5031162;28;21009;-77
2022/07/12 09:05:51;;;;;;;1.10;1.10;;;;;;;;;;5032985;28;20454;-75
2022/07/12 09:08:18;;;;;;;2.00;1.20;;;;;;;;;;5041718;28;20481;-75
2022/07/12 09:10:55;;;;;;;0.93;0.93;;;;;;;;;;5038523;28;20495;-75
2022/07/12 09:13:23;;;;;;;1.07;1.07;;;;;;;;;;5034771;28;20466;-77
2022/07/12 09:15:50;;;;;;;1.13;0.90;;;;;;;;;;5040170;28;20945;-77
2022/07/12 09:18:18;;;;;;;1.50;1.00;;;;;;;;;;5051810;28;20949;-76
2022/07/12 09:20:51;;;;;;;1.20;1.10;;;;;;;;;;5057672;28;20441;-75
2022/07/12 09:23:20;;;;;;;1.00;1.00;;;;;;;;;;5058253;28;20458;-76
2022/07/12 09:25:48;;;;;;;1.97;1.30;;;;;;;;;;5058989;28;20441;-76
2022/07/12 09:28:16;;;;;;;1.33;1.00;;;;;;;;;;5058765;28;20526;-77
2022/07/12 09:30:48;;;;;;;1.70;1.60;;;;;;;;;;5058651;28;20553;-76
2022/07/12 09:36:10;;;;;;;0.80;0.80;;;;;;;;;;5044458;28;20437;-77
2022/07/12 09:38:39;;;;;;;1.10;1.00;;;;;;;;;;5035980;28;20543;-77
2022/07/12 09:41:06;;;;;;;1.27;0.80;;;;;;;;;;5043575;28;20450;-77
2022/07/12 09:43:33;;;;;;;1.80;1.00;;;;;;;;;;5050634;28;20457;-76
2022/07/12 09:46:01;;;;;;;0.87;0.87;;;;;;;;;;5049565;28;20504;-75
2022/07/12 09:48:28;;;;;;;1.00;1.00;;;;;;;;;;5030788;28;20483;-75
2022/07/12 09:50:57;;;;;;;0.73;0.73;;;;;;;;;;5032811;28;20443;-76
2022/07/12 09:53:28;;;;;;;0.80;0.80;;;;;;;;;;5036287;28;20466;-75
2022/07/12 09:55:56;;;;;;;2.50;0.60;;;;;;;;;;5031736;28;20442;-76
2022/07/12 09:58:25;;;;;;;5.60;1.40;;;;;;;;;;5031387;28;20437;-76
2022/07/12 10:00:53;;;;;;;0.87;0.80;;;;;;;;;;5032326;28;20520;-76
2022/07/12 10:03:24;;;;;;;1.07;0.80;;;;;;;;;;5040900;28;20556;-77
2022/07/12 10:05:52;;;;;;;0.90;0.90;;;;;;;;;;5053297;28;20503;-78
2022/07/12 10:08:20;;;;;;;0.70;0.70;;;;;;;;;;5053666;28;20469;-77
2022/07/12 10:10:48;;;;;;;0.70;0.60;;;;;;;;;;5054424;28;20445;-74
2022/07/12 10:13:17;;;;;;;0.60;0.60;;;;;;;;;;5053758;28;20461;-76
2022/07/12 10:15:46;;;;;;;4.50;0.77;;;;;;;;;;5047876;28;20446;-76
2022/07/12 10:18:17;;;;;;;0.80;0.60;;;;;;;;;;5053002;28;20442;-77
2022/07/12 10:20:44;;;;;;;1.10;0.60;;;;;;;;;;5054284;28;20513;-76
2022/07/12 10:23:30;;;;;;;0.80;0.80;;;;;;;;;;5053864;28;20461;-75
2022/07/12 10:25:57;;;;;;;0.60;0.60;;;;;;;;;;5054320;28;20541;-76
2022/07/12 10:28:45;;;;;;;2.73;0.70;;;;;;;;;;5054038;28;21077;-77
2022/07/12 10:31:12;;;;;;;0.53;0.53;;;;;;;;;;5054156;28;20857;-76
2022/07/12 10:33:39;;;;;;;0.80;0.60;;;;;;;;;;5053916;28;20461;-76
2022/07/12 10:36:07;;;;;;;1.90;0.80;;;;;;;;;;5053779;28;20933;-77
2022/07/12 10:38:35;;;;;;;0.63;0.63;;;;;;;;;;5054530;28;20788;-76
2022/07/12 10:41:18;;;;;;;0.80;0.80;;;;;;;;;;5054060;28;20854;-77
2022/07/12 10:44:05;;;;;;;1.27;0.50;;;;;;;;;;5053378;28;20470;-75
2022/07/12 10:46:33;;;;;;;0.93;0.67;;;;;;;;;;5053220;28;20905;-75
2022/07/12 10:49:18;;;;;;;0.87;0.77;;;;;;;;;;5043355;28;20892;-75
2022/07/12 10:52:11;;;;;;;0.90;0.90;;;;;;;;;;5033378;28;20871;-76
2022/07/12 10:54:39;;;;;;;0.60;0.60;;;;;;;;;;5032767;28;21012;-77
2022/07/12 10:57:06;;;;;;;1.10;1.10;;;;;;;;;;5032958;28;20447;-76
2022/07/12 10:59:35;;;;;;;1.43;1.00;;;;;;;;;;5033220;28;20442;-77
2022/07/12 11:02:02;;;;;;;0.70;0.60;;;;;;;;;;5033120;28;20527;-77
2022/07/12 11:04:29;;;;;;;0.60;0.60;;;;;;;;;;5032751;28;20489;-76
2022/07/12 11:06:57;;;;;;;0.50;0.50;;;;;;;;;;5032712;28;20446;-76
2022/07/12 11:09:26;;;;;;;1.03;0.63;;;;;;;;;;5041534;28;20933;-76
2022/07/12 11:11:54;;;;;;;0.80;0.80;;;;;;;;;;5052318;28;20465;-77
2022/07/12 11:14:22;;;;;;;1.47;0.70;;;;;;;;;;5052838;28;20595;-76
2022/07/12 11:16:51;;;;;;;2.20;0.70;;;;;;;;;;5052755;28;20445;-77
2022/07/12 11:19:22;;;;;;;1.30;0.50;;;;;;;;;;5052624;28;20481;-77
2022/07/12 11:21:55;;;;;;;3.70;0.53;;;;;;;;;;5052479;28;20444;-76
2022/07/12 11:24:22;;;;;;;0.80;0.70;;;;;;;;;;5052619;28;20468;-78
2022/07/12 11:26:49;;;;;;;0.50;0.50;;;;;;;;;;5052609;28;20499;-76
2022/07/12 11:29:18;;;;;;;0.60;0.60;;;;;;;;;;5052371;28;20898;-76
2022/07/12 11:31:46;;;;;;;0.67;0.67;;;;;;;;;;5052676;28;20496;-76
2022/07/12 11:34:22;;;;;;;1.27;0.50;;;;;;;;;;5052735;28;20926;-76
2022/07/12 11:36:52;;;;;;;1.23;0.50;;;;;;;;;;5052362;28;20933;-77
2022/07/12 11:39:19;;;;;;;1.23;1.13;;;;;;;;;;5052564;28;20449;-76
2022/07/12 11:41:56;;;;;;;0.60;0.60;;;;;;;;;;5052184;28;20445;-77
2022/07/12 11:44:28;;;;;;;0.67;0.67;;;;;;;;;;5052444;28;20445;-75
2022/07/12 11:46:56;;;;;;;0.60;0.60;;;;;;;;;;5052457;28;20809;-77
2022/07/12 11:49:23;;;;;;;0.60;0.60;;;;;;;;;;5051932;28;20543;-76
2022/07/12 11:51:50;;;;;;;0.60;0.60;;;;;;;;;;5051682;28;22178;-76
2022/07/12 11:54:17;;;;;;;0.60;0.57;;;;;;;;;;5051560;28;20545;-76
2022/07/12 11:56:44;;;;;;;1.60;0.60;;;;;;;;;;5052074;28;20433;-75
2022/07/12 11:59:11;;;;;;;0.47;0.47;;;;;;;;;;5051965;28;20499;-76
2022/07/12 12:01:40;;;;;;;1.53;0.50;;;;;;;;;;5051989;28;20496;-75
2022/07/12 12:04:13;;;;;;;0.50;0.50;;;;;;;;;;5051295;28;20944;-76
2022/07/12 12:06:40;;;;;;;0.50;0.50;;;;;;;;;;5054870;28;20529;-75
2022/07/12 12:09:08;;;;;;;0.50;0.50;;;;;;;;;;5046096;28;20471;-76
2022/07/12 12:11:36;;;;;;;0.70;0.50;;;;;;;;;;5031808;28;20446;-75
2022/07/12 12:14:03;;;;;;;0.30;0.30;;;;;;;;;;5031648;28;20876;-76
2022/07/12 12:16:34;;;;;;;0.40;0.40;;;;;;;;;;5031703;28;20981;-76
2022/07/12 12:19:03;;;;;;;0.83;0.50;;;;;;;;;;5031641;28;20950;-76
2022/07/12 12:21:30;;;;;;;1.27;0.47;;;;;;;;;;5031436;28;20938;-76
2022/07/12 12:24:09;;;;;;;0.70;0.60;;;;;;;;;;5031534;28;20450;-75
2022/07/12 12:26:36;;;;;;;0.50;0.40;;;;;;;;;;5031898;28;20491;-77
2022/07/12 12:29:03;;;;;;;0.37;0.37;;;;;;;;;;5031627;28;21004;-76
2022/07/12 12:31:30;;;;;;;0.90;0.70;;;;;;;;;;5031635;28;20445;-77
2022/07/12 12:33:58;;;;;;;1.17;0.40;;;;;;;;;;5031011;28;20938;-77
2022/07/12 12:36:27;;;;;;;0.50;0.50;;;;;;;;;;5031720;28;20438;-76
2022/07/12 12:38:56;;;;;;;1.07;0.53;;;;;;;;;;5032085;28;20922;-75
2022/07/12 12:41:23;;;;;;;1.23;0.40;;;;;;;;;;5031655;28;20546;-76
2022/07/12 12:43:58;;;;;;;0.60;0.50;;;;;;;;;;5031417;28;20470;-75
2022/07/12 12:46:40;;;;;;;0.83;0.60;;;;;;;;;;5033999;28;21014;-76
2022/07/12 12:49:07;;;;;;;0.40;0.40;;;;;;;;;;5032773;28;20927;-76
2022/07/12 12:51:51;;;;;;;0.40;0.40;;;;;;;;;;5032544;28;20724;-77
2022/07/12 12:54:31;;;;;;;2.77;0.80;;;;;;;;;;5031486;28;20536;-76
2022/07/12 12:56:58;;;;;;;3.47;0.47;;;;;;;;;;5031709;28;20988;-77
2022/07/12 12:59:25;;;;;;;1.83;0.50;;;;;;;;;;5032054;28;20451;-81
2022/07/12 13:01:52;;;;;;;0.50;0.50;;;;;;;;;;5032736;28;20965;-76
2022/07/12 13:04:19;;;;;;;0.60;0.50;;;;;;;;;;5032388;28;20438;-77
2022/07/12 13:06:48;;;;;;;1.13;0.50;;;;;;;;;;5033585;28;20442;-76
2022/07/12 13:09:15;;;;;;;0.70;0.53;;;;;;;;;;5039317;28;20481;-76
2022/07/12 13:11:42;;;;;;;1.00;0.40;;;;;;;;;;5051587;28;20533;-77
2022/07/12 13:14:09;;;;;;;1.13;0.50;;;;;;;;;;5051520;28;20674;-76
2022/07/12 13:16:36;;;;;;;2.20;0.60;;;;;;;;;;5051616;28;20445;-76
2022/07/12 13:19:03;;;;;;;2.10;0.40;;;;;;;;;;5051560;28;20475;-76
2022/07/12 13:21:30;;;;;;;2.97;0.50;;;;;;;;;;5051641;28;20453;-76
2022/07/12 13:23:58;;;;;;;1.00;0.90;;;;;;;;;;5053938;28;20850;-76
2022/07/12 13:26:26;;;;;;;0.53;0.40;;;;;;;;;;5051461;28;20952;-77
2022/07/12 13:28:53;;;;;;;0.40;0.40;;;;;;;;;;5051587;28;20478;-76
2022/07/12 13:31:20;;;;;;;0.87;0.50;;;;;;;;;;5051524;28;20491;-76
2022/07/12 13:33:47;;;;;;;3.43;0.60;;;;;;;;;;5051528;28;20518;-76
2022/07/12 13:36:14;;;;;;;0.40;0.40;;;;;;;;;;5054059;28;20445;-76
2022/07/12 13:38:41;;;;;;;2.13;0.50;;;;;;;;;;5055655;28;20445;-78
2022/07/12 13:41:09;;;;;;;0.90;0.50;;;;;;;;;;5055472;28;20502;-76
2022/07/12 13:43:37;;;;;;;0.37;0.30;;;;;;;;;;5055010;28;20610;-76
2022/07/12 13:46:04;;;;;;;0.60;0.50;;;;;;;;;;5055368;28;20528;-77
2022/07/12 13:48:33;;;;;;;1.63;0.70;;;;;;;;;;5055447;28;20480;-77
2022/07/12 13:51:00;;;;;;;0.63;0.47;;;;;;;;;;5055282;28;20804;-76
2022/07/12 13:53:27;;;;;;;0.60;0.40;;;;;;;;;;5055456;28;20507;-76
2022/07/12 13:55:54;;;;;;;0.53;0.50;;;;;;;;;;5055432;28;20449;-76
2022/07/12 13:58:23;;;;;;;1.57;0.50;;;;;;;;;;5055207;28;20456;-77
2022/07/12 14:00:50;;;;;;;0.83;0.50;;;;;;;;;;5054582;28;20441;-76
2022/07/12 14:03:17;;;;;;;0.53;0.53;;;;;;;;;;5054022;28;21000;-76
2022/07/12 14:05:44;;;;;;;0.67;0.67;;;;;;;;;;5054612;28;20441;-77
2022/07/12 14:08:11;;;;;;;0.40;0.40;;;;;;;;;;5054659;28;20999;-77
2022/07/12 14:10:38;;;;;;;0.60;0.60;;;;;;;;;;5035717;28;20500;-77
2022/07/12 14:13:05;;;;;;;1.27;0.60;;;;;;;;;;5033931;28;20525;-76
2022/07/12 14:15:37;;;;;;;1.07;0.60;;;;;;;;;;5033991;28;20553;-77
2022/07/12 14:18:05;;;;;;;0.60;0.50;;;;;;;;;;5034669;28;20453;-77
2022/07/12 14:20:33;;;;;;;0.40;0.40;;;;;;;;;;5034298;28;20841;-76
2022/07/12 14:23:00;;;;;;;1.60;0.40;;;;;;;;;;5034313;28;20478;-78
2022/07/12 14:25:27;;;;;;;0.30;0.30;;;;;;;;;;5034151;28;20957;-77
2022/07/12 14:27:54;;;;;;;0.50;0.50;;;;;;;;;;5034029;28;20485;-76
2022/07/12 14:30:21;;;;;;;0.50;0.50;;;;;;;;;;5034474;28;20458;-75
2022/07/12 14:32:50;;;;;;;0.60;0.60;;;;;;;;;;5033634;28;20502;-76
2022/07/12 14:35:17;;;;;;;0.60;0.60;;;;;;;;;;5034088;28;20528;-78
2022/07/12 14:37:44;;;;;;;1.03;0.70;;;;;;;;;;5033782;28;20496;-76
2022/07/12 14:40:12;;;;;;;1.07;0.50;;;;;;;;;;5033795;28;20438;-76
2022/07/12 14:42:39;;;;;;;1.23;0.60;;;;;;;;;;5033150;28;20526;-76
2022/07/12 14:45:07;;;;;;;0.60;0.60;;;;;;;;;;5033535;28;20445;-77
2022/07/12 14:47:34;;;;;;;1.07;0.40;;;;;;;;;;5033358;28;20447;-78
2022/07/12 14:50:04;;;;;;;1.03;0.63;;;;;;;;;;5033506;28;20478;-77
2022/07/12 14:52:31;;;;;;;0.53;0.53;;;;;;;;;;5032982;28;20985;-76
2022/07/12 14:54:58;;;;;;;0.90;0.60;;;;;;;;;;5033472;28;20497;-77
2022/07/12 14:57:25;;;;;;;0.50;0.43;;;;;;;;;;5033763;28;20450;-77